Time;durP1;ratioP1;P1;durP2;ratioP2;P2;SDS_P1;SDS_P2;PMS_P1;PMS_P2;Temp;Humidity;BMP_temperature;BMP_pressure;BME280_temperature;BME280_humidity;BME280_pressure;Samples;Min_cycle;Max_cycle;Signal;HPM_P1;HPM_P2
2023/01/26 00:00:06;;;;;;;31.50;12.90;;;-0.40;99.90;;;;;;5001505;28;20388;-65
2023/01/26 00:02:32;;;;;;;34.78;12.82;;;-0.30;99.90;;;;;;5001800;28;20088;-66
2023/01/26 00:04:57;;;;;;;41.85;14.45;;;-0.40;99.90;;;;;;5003671;28;20030;-65
2023/01/26 00:07:23;;;;;;;36.17;13.02;;;-0.50;99.90;;;;;;5003822;28;20021;-66
2023/01/26 00:09:48;;;;;;;47.63;16.65;;;-0.40;99.90;;;;;;5009187;28;20113;-64
2023/01/26 00:12:14;;;;;;;34.47;12.97;;;-0.50;99.90;;;;;;4998778;28;20408;-64
2023/01/26 00:14:48;;;;;;;43.25;15.43;;;-0.50;99.90;;;;;;5003517;28;20032;-65
2023/01/26 00:17:24;;;;;;;47.33;15.13;;;-0.50;99.90;;;;;;5003192;28;20034;-65
2023/01/26 00:19:51;;;;;;;39.22;14.85;;;-0.50;99.90;;;;;;5004076;28;20066;-65
2023/01/26 00:22:16;;;;;;;52.50;17.53;;;-0.50;99.90;;;;;;5016667;28;20113;-65
2023/01/26 00:24:42;;;;;;;46.58;14.93;;;-0.60;99.90;;;;;;5012988;28;20101;-65
2023/01/26 00:27:08;;;;;;;52.30;16.58;;;-0.60;99.90;;;;;;5008778;28;20018;-65
2023/01/26 00:29:33;;;;;;;57.25;16.42;;;-0.60;99.90;;;;;;5009143;28;20022;-65
2023/01/26 00:31:59;;;;;;;56.50;18.07;;;-0.60;99.90;;;;;;5008701;28;20029;-65
2023/01/26 00:34:24;;;;;;;65.67;18.60;;;-0.70;99.90;;;;;;5010211;28;20506;-65
2023/01/26 00:36:50;;;;;;;53.70;17.33;;;-0.60;99.90;;;;;;5010794;28;20069;-66
2023/01/26 00:39:15;;;;;;;51.63;16.30;;;-0.70;99.90;;;;;;5007346;28;20026;-64
2023/01/26 00:44:25;;;;;;;;;;;-0.60;99.90;;;;;;5002302;28;20523;-65
2023/01/26 00:46:51;;;;;;;57.33;16.40;;;-0.60;99.90;;;;;;5001186;28;19914;-64
2023/01/26 00:49:17;;;;;;;52.70;15.30;;;-0.60;99.90;;;;;;5005330;28;20544;-65
2023/01/26 00:51:42;;;;;;;58.17;17.23;;;-0.60;99.90;;;;;;5007313;28;20045;-65
2023/01/26 00:54:08;;;;;;;52.63;17.03;;;-0.70;99.90;;;;;;5004277;28;20042;-65
2023/01/26 00:56:33;;;;;;;52.33;18.07;;;-0.70;99.90;;;;;;5007931;28;20701;-65
2023/01/26 00:58:59;;;;;;;57.83;17.80;;;-0.70;99.90;;;;;;5003897;28;20407;-65
2023/01/26 01:01:24;;;;;;;58.00;19.30;;;-0.70;99.90;;;;;;5003137;28;20033;-65
2023/01/26 01:03:51;;;;;;;55.87;18.27;;;-0.70;99.90;;;;;;5004401;28;20033;-65
2023/01/26 01:06:16;;;;;;;55.60;18.00;;;-0.80;99.90;;;;;;5004574;28;20022;-66
2023/01/26 01:08:42;;;;;;;63.33;19.20;;;-0.70;99.90;;;;;;4960889;28;21002;-65
2023/01/26 01:11:10;;;;;;;53.93;18.93;;;-0.70;99.90;;;;;;5003587;28;20030;-65
2023/01/26 01:13:36;;;;;;;58.87;19.27;;;-0.80;99.90;;;;;;5005167;28;20057;-65
2023/01/26 01:16:13;;;;;;;58.47;18.20;;;-0.80;99.90;;;;;;5061797;27;20867;-65
2023/01/26 01:18:38;;;;;;;52.30;17.13;;;-0.80;99.90;;;;;;5059107;28;20170;-65
2023/01/26 01:21:14;;;;;;;57.13;19.13;;;-0.80;99.90;;;;;;5063251;28;20484;-65
2023/01/26 01:23:40;;;;;;;55.03;17.20;;;-0.80;99.90;;;;;;5064329;28;20504;-65
2023/01/26 01:26:07;;;;;;;57.60;18.03;;;-0.80;99.90;;;;;;5056860;28;20483;-65
2023/01/26 01:28:33;;;;;;;51.33;16.93;;;-0.90;99.90;;;;;;5063896;28;20088;-65
2023/01/26 01:31:06;;;;;;;60.50;17.83;;;-0.90;99.90;;;;;;5061698;28;20032;-66
2023/01/26 01:33:31;;;;;;;56.07;17.53;;;-1.00;99.90;;;;;;5064227;28;20036;-65
2023/01/26 01:35:59;;;;;;;46.27;18.57;;;-0.90;99.90;;;;;;5059710;28;20083;-65
2023/01/26 01:38:26;;;;;;;57.23;18.20;;;-0.90;99.90;;;;;;5063494;28;20025;-64
2023/01/26 01:40:52;;;;;;;58.30;16.50;;;-0.90;99.90;;;;;;5062142;28;20024;-65
2023/01/26 01:43:18;;;;;;;60.90;20.27;;;-0.80;99.90;;;;;;5064798;28;20167;-65
2023/01/26 01:45:49;;;;;;;70.47;21.10;;;-0.80;99.90;;;;;;5059457;28;20029;-65
2023/01/26 01:48:30;;;;;;;47.50;15.77;;;-0.70;99.90;;;;;;5062798;28;20015;-65
2023/01/26 01:51:02;;;;;;;68.23;19.00;;;-0.80;99.90;;;;;;5061896;28;20044;-63
2023/01/26 01:53:34;;;;;;;51.10;17.93;;;-0.70;99.90;;;;;;5062813;28;20025;-65
2023/01/26 01:56:04;;;;;;;53.67;17.20;;;-0.80;99.90;;;;;;5060036;28;20862;-64
2023/01/26 01:58:32;;;;;;;62.07;17.60;;;-0.80;99.90;;;;;;5061756;28;20025;-65
2023/01/26 02:00:58;;;;;;;53.37;17.83;;;-0.80;99.90;;;;;;5058258;28;20063;-64
2023/01/26 02:03:25;;;;;;;54.43;17.00;;;-0.80;99.90;;;;;;5062384;28;20419;-65
2023/01/26 02:06:06;;;;;;;56.77;16.33;;;-0.80;99.90;;;;;;5060045;28;20314;-66
2023/01/26 02:08:36;;;;;;;69.90;21.27;;;-0.80;99.90;;;;;;5061921;28;20075;-65
2023/01/26 02:11:13;;;;;;;67.87;19.17;;;-0.80;99.90;;;;;;5057785;28;20078;-65
2023/01/26 02:13:41;;;;;;;72.27;19.77;;;-0.80;99.90;;;;;;5011060;28;20056;-64
2023/01/26 02:16:07;;;;;;;68.17;19.73;;;-0.80;99.90;;;;;;5001747;28;20113;-64
2023/01/26 02:18:32;;;;;;;67.50;20.97;;;-0.80;99.90;;;;;;5004173;28;20116;-66
2023/01/26 02:21:05;;;;;;;67.27;21.80;;;-0.80;99.90;;;;;;5005472;28;20683;-64
2023/01/26 02:23:49;;;;;;;84.87;21.97;;;-0.80;99.90;;;;;;5004787;28;20052;-66
2023/01/26 02:26:36;;;;;;;71.30;18.73;;;-0.80;99.90;;;;;;4995106;28;20030;-65
2023/01/26 02:29:06;;;;;;;75.10;22.73;;;-0.90;99.90;;;;;;4989180;28;20487;-64
2023/01/26 02:31:32;;;;;;;85.80;20.70;;;-0.90;99.90;;;;;;4991224;28;20056;-65
2023/01/26 02:33:57;;;;;;;74.83;21.10;;;-0.90;99.90;;;;;;4988964;28;20114;-65
2023/01/26 02:36:29;;;;;;;69.77;20.07;;;-0.80;99.90;;;;;;4977328;28;20054;-65
2023/01/26 02:39:36;;;;;;;70.30;20.50;;;-0.90;99.90;;;;;;4988815;28;20022;-65
2023/01/26 02:44:45;;;;;;;74.47;20.85;;;-1.00;99.90;;;;;;4995797;28;20048;-65
2023/01/26 02:47:13;;;;;;;76.07;21.80;;;-1.00;99.90;;;;;;4994179;28;20042;-65
2023/01/26 02:49:49;;;;;;;82.83;23.43;;;-1.00;99.90;;;;;;4986195;28;20034;-65
2023/01/26 02:52:21;;;;;;;68.82;21.20;;;-1.00;99.90;;;;;;4983272;28;20038;-65
2023/01/26 02:57:33;;;;;;;65.35;22.15;;;-0.90;99.90;;;;;;4987418;28;20044;-64
2023/01/26 02:59:58;;;;;;;65.87;19.13;;;-0.80;99.90;;;;;;4988403;28;20034;-65
2023/01/26 03:02:24;;;;;;;71.90;21.07;;;-0.80;99.90;;;;;;4988807;28;20031;-65
2023/01/26 03:04:50;;;;;;;75.80;21.17;;;-0.80;99.90;;;;;;4989147;28;20076;-63
2023/01/26 03:07:15;;;;;;;66.47;20.40;;;-0.80;99.90;;;;;;4988101;28;20030;-63
2023/01/26 03:09:41;;;;;;;74.20;21.13;;;-0.90;99.90;;;;;;4981876;28;20504;-65
2023/01/26 03:12:07;;;;;;;77.10;21.73;;;-0.90;99.90;;;;;;4991127;28;20105;-65
2023/01/26 03:14:32;;;;;;;61.40;17.53;;;-0.90;99.90;;;;;;4987508;28;20454;-65
2023/01/26 03:16:58;;;;;;;77.73;21.50;;;-0.90;99.90;;;;;;5001818;28;20558;-65
2023/01/26 03:27:44;;;;;;;74.68;19.52;;;-1.00;99.90;;;;;;4998665;28;20041;-65
2023/01/26 03:30:11;;;;;;;76.53;19.70;;;-0.90;99.90;;;;;;5009284;28;20472;-65
2023/01/26 03:32:36;;;;;;;80.10;20.67;;;-0.80;99.90;;;;;;5006827;28;20118;-65
2023/01/26 03:35:02;;;;;;;72.40;21.00;;;-0.80;99.90;;;;;;5006025;28;20046;-66
2023/01/26 03:37:33;;;;;;;92.67;23.67;;;-0.90;99.90;;;;;;5007531;28;20018;-65
2023/01/26 03:56:31;;;;;;;90.60;24.33;;;-0.80;99.90;;;;;;5006216;28;20049;-64
2023/01/26 03:59:06;;;;;;;76.97;21.38;;;-0.80;99.90;;;;;;5010033;28;20122;-65
2023/01/26 04:01:36;;;;;;;86.67;23.57;;;-0.90;99.90;;;;;;5004828;28;20647;-65
2023/01/26 04:09:35;;;;;;;75.57;23.33;;;-0.90;99.90;;;;;;4999966;28;20046;-64
2023/01/26 04:12:02;;;;;;;87.60;23.00;;;-0.90;99.90;;;;;;4997998;28;20034;-65
2023/01/26 04:22:44;;;;;;;78.88;22.17;;;-0.80;99.90;;;;;;4981550;28;20076;-64
2023/01/26 04:25:18;;;;;;;78.13;22.33;;;-0.80;99.90;;;;;;4982805;28;20058;-65
2023/01/26 04:27:44;;;;;;;;;;;-0.80;99.90;;;;;;4984370;28;20113;-64
2023/01/26 04:30:12;;;;;;;74.83;21.00;;;-0.80;99.90;;;;;;4978591;28;19921;-65
2023/01/26 04:32:38;;;;;;;87.23;22.40;;;-0.80;99.90;;;;;;4982109;28;21046;-64
2023/01/26 04:35:05;;;;;;;89.13;22.63;;;-0.80;99.90;;;;;;4980378;28;20026;-65
2023/01/26 04:37:31;;;;;;;90.53;23.57;;;-0.90;99.90;;;;;;4982133;28;20034;-64
2023/01/26 04:39:56;;;;;;;80.20;22.47;;;-0.80;99.90;;;;;;4986027;28;20014;-64
2023/01/26 04:42:23;;;;;;;85.30;22.13;;;-0.90;99.90;;;;;;4986645;28;20019;-64
2023/01/26 04:44:52;;;;;;;80.63;22.87;;;-0.80;99.90;;;;;;4985305;28;20452;-64
2023/01/26 04:47:20;;;;;;;79.67;22.43;;;-0.80;99.90;;;;;;4985122;28;20026;-64
2023/01/26 04:49:45;;;;;;;83.75;22.88;;;-0.80;99.90;;;;;;4985158;28;20113;-65
2023/01/26 04:52:11;;;;;;;79.93;22.43;;;-0.80;99.90;;;;;;4986959;28;20133;-65
2023/01/26 04:54:37;;;;;;;89.93;23.60;;;-0.80;99.90;;;;;;4986991;28;20403;-65
2023/01/26 04:57:03;;;;;;;76.63;22.60;;;-0.70;99.90;;;;;;4982171;28;20030;-65
2023/01/26 04:59:29;;;;;;;70.28;20.35;;;-0.70;99.90;;;;;;4988286;28;20433;-64
2023/01/26 05:01:55;;;;;;;73.90;22.42;;;-0.70;99.90;;;;;;4981359;28;20030;-65
2023/01/26 05:04:20;;;;;;;76.53;20.27;;;-0.80;99.90;;;;;;4986859;28;20049;-65
2023/01/26 05:06:46;;;;;;;71.90;22.38;;;-0.80;99.90;;;;;;4985026;28;20066;-64
2023/01/26 05:09:12;;;;;;;76.40;21.53;;;-0.70;99.90;;;;;;4984524;28;20030;-64
2023/01/26 05:11:37;;;;;;;81.95;24.63;;;-0.80;99.90;;;;;;4980131;28;20026;-65
2023/01/26 05:14:03;;;;;;;82.60;23.42;;;-0.70;99.90;;;;;;4962173;28;20147;-65
2023/01/26 05:16:28;;;;;;;83.53;26.67;;;-0.80;99.90;;;;;;4980328;28;20026;-65
2023/01/26 05:18:54;;;;;;;95.80;29.40;;;-0.80;99.90;;;;;;4984078;28;20030;-65
2023/01/26 05:21:23;;;;;;;90.17;24.87;;;-0.80;99.90;;;;;;4984466;28;20361;-64
2023/01/26 05:23:49;;;;;;;71.93;20.27;;;-0.70;99.90;;;;;;4987185;28;20076;-64
2023/01/26 05:26:15;;;;;;;72.53;21.23;;;-0.70;99.90;;;;;;4986115;28;20030;-64
2023/01/26 05:28:40;;;;;;;74.05;21.65;;;-0.70;99.90;;;;;;4985314;28;20101;-65
2023/01/26 05:31:06;;;;;;;71.28;20.48;;;-0.70;99.90;;;;;;4981712;28;20034;-64
2023/01/26 05:33:32;;;;;;;73.47;19.53;;;-0.70;99.90;;;;;;4987117;28;22116;-65
2023/01/26 05:35:57;;;;;;;77.18;19.90;;;-0.70;99.90;;;;;;4988079;28;20038;-65
2023/01/26 05:38:23;;;;;;;71.57;20.13;;;-0.70;99.90;;;;;;4986517;28;20480;-64
2023/01/26 05:40:48;;;;;;;71.18;21.52;;;-0.70;99.90;;;;;;4984290;28;20022;-64
2023/01/26 05:43:14;;;;;;;60.97;20.40;;;-0.70;99.90;;;;;;4985028;28;20030;-64
2023/01/26 05:45:40;;;;;;;58.67;17.40;;;-0.60;99.90;;;;;;4986748;28;20034;-64
2023/01/26 05:48:06;;;;;;;68.85;19.35;;;-0.60;99.90;;;;;;4979689;28;20413;-64
2023/01/26 05:50:31;;;;;;;59.90;20.03;;;-0.70;99.90;;;;;;4987001;28;20050;-64
2023/01/26 05:52:59;;;;;;;61.40;20.20;;;-0.60;99.90;;;;;;4986651;28;20030;-64
2023/01/26 05:55:25;;;;;;;52.40;17.73;;;-0.70;99.90;;;;;;4981929;28;20080;-65
2023/01/26 05:57:51;;;;;;;69.50;20.15;;;-0.70;99.90;;;;;;4984582;28;20053;-65
2023/01/26 06:00:17;;;;;;;66.45;18.90;;;-0.70;99.90;;;;;;4981912;28;20026;-64
2023/01/26 06:02:43;;;;;;;64.87;20.77;;;-0.80;99.90;;;;;;4986059;28;20475;-64
2023/01/26 06:05:09;;;;;;;65.00;18.20;;;-0.80;99.90;;;;;;4986968;28;20160;-64
2023/01/26 06:07:34;;;;;;;55.50;18.53;;;-0.70;99.90;;;;;;4988190;28;20035;-64
2023/01/26 06:10:00;;;;;;;59.70;18.83;;;-0.70;99.90;;;;;;4979844;28;20046;-64
2023/01/26 06:12:30;;;;;;;67.20;17.50;;;-0.70;99.90;;;;;;4983891;28;20033;-65
2023/01/26 06:14:56;;;;;;;63.73;18.43;;;-0.70;99.90;;;;;;4958441;28;20547;-65
2023/01/26 06:17:22;;;;;;;65.03;18.53;;;-0.60;99.90;;;;;;4984499;28;20473;-66
2023/01/26 06:19:47;;;;;;;87.80;22.70;;;-0.60;99.90;;;;;;4980803;28;20030;-64
2023/01/26 06:22:13;;;;;;;74.97;21.90;;;-0.60;99.90;;;;;;4981640;28;20647;-63
2023/01/26 06:24:39;;;;;;;56.53;16.90;;;-0.60;99.90;;;;;;4984760;28;20030;-65
2023/01/26 06:27:12;;;;;;;62.50;19.27;;;-0.60;99.90;;;;;;4984671;28;20105;-65
2023/01/26 06:29:38;;;;;;;64.13;20.73;;;-0.70;99.90;;;;;;4972577;28;20022;-64
2023/01/26 06:32:04;;;;;;;72.05;21.05;;;-0.60;99.90;;;;;;4983949;28;20392;-64
2023/01/26 06:34:29;;;;;;;64.93;20.38;;;-0.60;99.90;;;;;;4984717;28;20117;-65
2023/01/26 06:36:55;;;;;;;65.80;21.02;;;-0.60;99.90;;;;;;4980900;28;20476;-66
2023/01/26 06:39:21;;;;;;;60.45;18.92;;;-0.60;99.90;;;;;;4980901;28;20404;-65
2023/01/26 06:41:46;;;;;;;62.07;19.33;;;-0.60;99.90;;;;;;4991065;28;20033;-64
2023/01/26 06:44:12;;;;;;;62.00;18.40;;;-0.60;99.90;;;;;;4988043;28;20475;-65
2023/01/26 06:46:38;;;;;;;58.60;18.23;;;-0.60;99.90;;;;;;4978581;28;20465;-66
2023/01/26 06:49:04;;;;;;;69.05;22.42;;;-0.60;99.90;;;;;;4988046;28;20058;-65
2023/01/26 06:51:54;;;;;;;60.03;19.10;;;-0.50;99.90;;;;;;4988671;28;20072;-65
2023/01/26 06:54:20;;;;;;;63.30;17.40;;;-0.60;99.90;;;;;;4988529;28;20053;-66
2023/01/26 06:56:45;;;;;;;55.63;17.30;;;-0.60;99.90;;;;;;4988438;28;20026;-66
2023/01/26 06:59:11;;;;;;;60.28;16.60;;;-0.60;99.90;;;;;;4983495;28;20543;-65
2023/01/26 07:01:40;;;;;;;64.50;18.00;;;-0.60;99.90;;;;;;4984300;28;20121;-65
2023/01/26 07:04:05;;;;;;;57.13;16.30;;;-0.60;99.90;;;;;;4983718;28;20089;-65
2023/01/26 07:06:31;;;;;;;66.17;17.27;;;-0.60;99.90;;;;;;4982174;28;20027;-65
2023/01/26 07:08:56;;;;;;;55.22;19.35;;;-0.60;99.90;;;;;;4980271;28;20456;-65
2023/01/26 07:11:24;;;;;;;53.10;17.08;;;-0.60;99.90;;;;;;4988188;28;20459;-66
2023/01/26 07:13:49;;;;;;;66.40;19.08;;;-0.60;99.90;;;;;;4970254;28;20022;-66
2023/01/26 07:16:16;;;;;;;63.95;20.42;;;-0.60;99.90;;;;;;4987420;28;20468;-66
2023/01/26 07:18:42;;;;;;;72.68;20.88;;;-0.60;99.90;;;;;;4989656;28;20019;-66
2023/01/26 07:21:14;;;;;;;65.13;21.23;;;-0.60;99.90;;;;;;4984103;28;20085;-65
2023/01/26 07:23:40;;;;;;;68.20;20.47;;;-0.50;99.90;;;;;;4985788;28;20033;-66
2023/01/26 07:26:06;;;;;;;55.65;18.98;;;-0.50;99.90;;;;;;4982575;28;20034;-66
2023/01/26 07:28:33;;;;;;;54.85;16.42;;;-0.50;99.90;;;;;;4980738;28;20039;-65
2023/01/26 07:30:59;;;;;;;64.28;18.15;;;-0.50;99.90;;;;;;4981946;28;20743;-66
2023/01/26 07:33:27;;;;;;;69.85;21.08;;;-0.50;99.90;;;;;;4985849;28;20472;-66
2023/01/26 07:35:53;;;;;;;63.90;19.58;;;-0.50;99.90;;;;;;4988123;28;20428;-65
2023/01/26 07:38:19;;;;;;;56.42;18.13;;;-0.40;99.90;;;;;;4982025;28;20030;-66
2023/01/26 07:40:44;;;;;;;53.70;17.52;;;-0.40;99.90;;;;;;4988176;28;20069;-65
2023/01/26 07:43:10;;;;;;;61.67;18.63;;;-0.40;99.90;;;;;;4984102;28;20132;-65
2023/01/26 07:45:36;;;;;;;56.28;15.98;;;-0.50;99.90;;;;;;4990384;28;20040;-66
2023/01/26 07:48:01;;;;;;;57.33;18.95;;;-0.40;99.90;;;;;;4983692;28;20039;-66
2023/01/26 07:50:27;;;;;;;53.63;17.77;;;-0.40;99.90;;;;;;4987020;28;20057;-67
2023/01/26 07:52:53;;;;;;;60.22;17.13;;;-0.40;99.90;;;;;;4984710;28;20030;-65
2023/01/26 07:55:19;;;;;;;57.67;16.42;;;-0.40;99.90;;;;;;4988848;28;20052;-66
2023/01/26 07:57:48;;;;;;;48.60;16.17;;;-0.40;99.90;;;;;;4985739;28;20026;-65
2023/01/26 08:00:15;;;;;;;46.70;15.63;;;-0.40;99.90;;;;;;4987070;28;20037;-66
2023/01/26 08:02:40;;;;;;;49.63;15.68;;;-0.40;99.90;;;;;;4979573;28;20061;-66
2023/01/26 08:05:06;;;;;;;44.50;14.05;;;-0.40;99.90;;;;;;4985387;28;20065;-64
2023/01/26 08:07:32;;;;;;;53.22;16.80;;;-0.30;99.90;;;;;;4987486;28;20153;-66
2023/01/26 08:09:58;;;;;;;61.38;18.90;;;-0.30;99.90;;;;;;4986924;28;20030;-65
2023/01/26 08:12:24;;;;;;;70.53;25.67;;;-0.20;99.90;;;;;;4987783;28;20643;-66
2023/01/26 08:14:50;;;;;;;52.45;18.35;;;-0.20;99.90;;;;;;4962255;28;20491;-63
2023/01/26 08:17:16;;;;;;;74.00;25.13;;;-0.10;99.90;;;;;;4988892;28;20057;-65
2023/01/26 08:19:42;;;;;;;61.65;17.17;;;-0.10;99.90;;;;;;4987014;28;20022;-66
2023/01/26 08:22:08;;;;;;;54.35;18.17;;;0.00;99.90;;;;;;4989351;28;20041;-65
2023/01/26 08:24:33;;;;;;;51.15;15.85;;;0.00;99.90;;;;;;4983034;28;20038;-64
2023/01/26 08:26:59;;;;;;;45.08;15.77;;;0.00;99.90;;;;;;4986363;28;20117;-66
2023/01/26 08:29:25;;;;;;;54.35;17.60;;;0.00;99.90;;;;;;4980191;28;20030;-65
2023/01/26 08:31:50;;;;;;;56.00;18.35;;;-0.10;99.90;;;;;;4982754;28;20037;-67
2023/01/26 08:34:16;;;;;;;58.13;16.23;;;0.00;99.90;;;;;;4984603;28;20034;-65
2023/01/26 08:36:41;;;;;;;63.97;18.10;;;0.00;99.90;;;;;;4986003;28;20026;-66
2023/01/26 08:39:07;;;;;;;52.47;18.20;;;0.00;99.90;;;;;;4987576;28;20782;-66
2023/01/26 08:41:32;;;;;;;50.72;16.98;;;0.00;99.90;;;;;;4989109;28;20031;-66
2023/01/26 08:43:58;;;;;;;59.40;19.08;;;0.10;99.90;;;;;;4983982;28;20061;-66
2023/01/26 08:46:24;;;;;;;55.67;19.38;;;0.00;99.90;;;;;;4988015;28;22024;-65
2023/01/26 08:48:50;;;;;;;64.20;19.58;;;0.00;99.90;;;;;;4988815;28;20551;-65
2023/01/26 08:51:16;;;;;;;54.33;17.77;;;0.10;99.90;;;;;;4982988;28;20038;-65
2023/01/26 08:53:42;;;;;;;59.38;18.17;;;0.10;99.90;;;;;;4987045;28;20034;-66
2023/01/26 08:56:11;;;;;;;54.30;17.95;;;0.10;99.90;;;;;;4989959;28;20038;-65
2023/01/26 08:58:37;;;;;;;62.97;18.10;;;0.10;99.90;;;;;;4986687;28;20018;-66
2023/01/26 09:01:09;;;;;;;59.05;20.20;;;0.10;99.90;;;;;;4985013;28;20049;-65
2023/01/26 09:03:35;;;;;;;51.17;18.58;;;0.10;99.90;;;;;;4984634;28;20565;-66
2023/01/26 09:06:03;;;;;;;53.65;18.55;;;0.10;99.90;;;;;;4983963;28;20057;-66
2023/01/26 09:08:29;;;;;;;58.85;18.80;;;0.10;99.90;;;;;;4981268;28;20579;-65
2023/01/26 09:10:55;;;;;;;55.75;18.15;;;0.10;99.90;;;;;;4982337;28;20113;-65
2023/01/26 09:13:21;;;;;;;54.58;18.25;;;0.10;99.90;;;;;;4979552;28;20053;-67
2023/01/26 09:15:46;;;;;;;64.43;19.23;;;0.10;99.90;;;;;;4962677;28;20382;-65
2023/01/26 09:18:12;;;;;;;60.50;19.40;;;0.20;99.90;;;;;;4985756;28;20571;-66
2023/01/26 09:20:38;;;;;;;52.45;18.42;;;0.20;99.90;;;;;;4984963;28;20029;-66
2023/01/26 09:23:04;;;;;;;52.85;17.20;;;0.30;99.90;;;;;;4989128;28;20037;-65
2023/01/26 09:25:29;;;;;;;53.33;18.58;;;0.30;99.90;;;;;;4987309;28;20035;-66
2023/01/26 09:27:55;;;;;;;61.38;19.58;;;0.30;99.90;;;;;;4987536;28;20054;-66
2023/01/26 09:30:23;;;;;;;64.35;21.65;;;0.30;99.90;;;;;;4986263;28;20533;-66
2023/01/26 09:32:49;;;;;;;68.32;20.10;;;0.40;99.90;;;;;;4989630;28;20038;-65
2023/01/26 09:35:15;;;;;;;56.60;19.23;;;0.40;99.90;;;;;;4988468;28;20491;-66
2023/01/26 09:37:42;;;;;;;58.60;20.08;;;0.40;99.90;;;;;;4989953;28;20030;-66
2023/01/26 09:40:21;;;;;;;52.53;18.08;;;0.30;99.90;;;;;;4985309;28;20113;-66
2023/01/26 09:42:58;;;;;;;52.60;19.17;;;0.40;99.90;;;;;;4989996;28;20026;-66
2023/01/26 09:45:39;;;;;;;54.65;16.67;;;0.40;99.90;;;;;;4990445;28;20026;-67
2023/01/26 09:48:17;;;;;;;55.20;19.30;;;0.40;99.90;;;;;;4978133;28;20501;-65
2023/01/26 09:51:15;;;;;;;51.33;19.38;;;0.50;99.90;;;;;;4989363;28;20506;-66
2023/01/26 09:53:53;;;;;;;56.10;16.58;;;0.60;99.90;;;;;;4992026;28;20042;-66
2023/01/26 09:56:22;;;;;;;50.88;17.80;;;0.60;99.90;;;;;;4990891;28;20381;-65
2023/01/26 09:59:15;;;;;;;58.10;18.40;;;0.60;99.90;;;;;;4991890;28;20033;-66
2023/01/26 10:01:47;;;;;;;58.28;17.50;;;0.60;99.90;;;;;;4983272;28;20113;-65
2023/01/26 10:04:35;;;;;;;60.42;18.52;;;0.60;99.90;;;;;;4985537;28;20161;-65
2023/01/26 10:07:04;;;;;;;67.00;20.13;;;0.60;99.90;;;;;;4984017;28;20203;-66
2023/01/26 10:09:33;;;;;;;70.95;20.58;;;0.60;99.90;;;;;;4988021;28;20065;-65
2023/01/26 10:12:17;;;;;;;64.07;20.33;;;0.60;99.90;;;;;;4988396;28;20039;-65
2023/01/26 10:14:50;;;;;;;62.35;19.90;;;0.80;99.90;;;;;;4967079;28;20058;-66
2023/01/26 10:17:28;;;;;;;61.15;18.98;;;0.90;99.90;;;;;;4987761;28;20052;-66
2023/01/26 10:20:05;;;;;;;59.30;19.58;;;0.80;99.90;;;;;;4987087;28;20110;-65
2023/01/26 10:22:46;;;;;;;62.78;20.13;;;0.80;99.90;;;;;;4985540;28;20034;-66
2023/01/26 10:25:16;;;;;;;70.45;19.63;;;0.90;99.90;;;;;;4988048;28;20543;-66
2023/01/26 10:27:44;;;;;;;61.10;20.10;;;0.90;99.90;;;;;;4981910;28;20034;-65
2023/01/26 10:30:19;;;;;;;59.80;20.33;;;0.80;99.90;;;;;;4988743;28;20038;-66
2023/01/26 10:32:48;;;;;;;58.58;19.02;;;0.80;99.90;;;;;;4985896;28;20030;-66
2023/01/26 10:35:19;;;;;;;62.58;20.08;;;0.90;99.90;;;;;;4990638;28;20088;-66
2023/01/26 10:37:45;;;;;;;61.15;21.15;;;0.90;99.90;;;;;;4990987;28;20019;-65
2023/01/26 10:40:12;;;;;;;63.80;20.88;;;1.00;99.90;;;;;;4987074;28;20030;-66
2023/01/26 10:42:39;;;;;;;65.00;21.17;;;1.00;99.90;;;;;;4989632;28;20404;-65
2023/01/26 10:45:23;;;;;;;61.85;21.23;;;1.20;99.90;;;;;;4987027;28;20042;-66
2023/01/26 10:48:22;;;;;;;65.85;19.80;;;1.10;99.90;;;;;;4978877;28;20039;-65
2023/01/26 10:50:49;;;;;;;53.13;17.48;;;1.10;99.90;;;;;;4989239;28;20034;-66
2023/01/26 10:53:23;;;;;;;61.30;19.55;;;1.10;99.90;;;;;;4990433;28;20110;-64
2023/01/26 10:56:10;;;;;;;65.47;20.33;;;1.00;99.90;;;;;;4987852;28;20088;-65
2023/01/26 10:59:01;;;;;;;56.50;19.10;;;1.00;99.90;;;;;;4987382;28;20445;-67
2023/01/26 11:01:27;;;;;;;55.95;18.13;;;1.00;99.90;;;;;;4986726;28;20019;-66
2023/01/26 11:03:59;;;;;;;54.75;19.40;;;1.00;99.90;;;;;;4988046;28;20023;-66
2023/01/26 11:06:27;;;;;;;55.92;19.05;;;0.90;99.90;;;;;;4987386;28;20030;-66
2023/01/26 11:08:53;;;;;;;58.88;18.98;;;1.00;99.90;;;;;;4989245;28;20062;-65
2023/01/26 11:11:28;;;;;;;50.15;17.73;;;1.10;99.90;;;;;;4988674;28;20061;-66
2023/01/26 11:14:20;;;;;;;58.10;20.48;;;1.10;99.90;;;;;;4984003;28;20033;-64
2023/01/26 11:16:56;;;;;;;64.93;19.30;;;1.10;99.90;;;;;;4985455;28;20030;-66
2023/01/26 11:19:30;;;;;;;63.70;19.83;;;1.10;99.90;;;;;;4988199;28;20035;-64
2023/01/26 11:22:04;;;;;;;63.38;20.33;;;1.10;99.90;;;;;;4984081;28;20019;-64
2023/01/26 11:24:45;;;;;;;;;;;1.10;99.90;;;;;;4987634;28;20058;-65
2023/01/26 11:27:28;;;;;;;51.42;17.13;;;1.20;99.90;;;;;;4990364;28;19964;-67
2023/01/26 11:30:05;;;;;;;66.75;20.73;;;1.20;99.90;;;;;;4987259;28;20067;-67
2023/01/26 11:32:57;;;;;;;53.22;17.77;;;1.20;99.90;;;;;;4982069;28;20030;-67
2023/01/26 11:35:44;;;;;;;61.15;18.30;;;1.20;99.90;;;;;;4987484;28;20058;-66
2023/01/26 11:38:25;;;;;;;56.50;19.70;;;1.20;99.90;;;;;;4990806;28;20105;-66
2023/01/26 11:41:19;;;;;;;66.30;18.38;;;1.20;99.90;;;;;;4982251;28;20500;-64
2023/01/26 11:43:53;;;;;;;;;;;1.30;99.90;;;;;;4987484;28;20154;-65
2023/01/26 11:46:46;;;;;;;55.95;18.02;;;1.40;99.90;;;;;;4990432;28;20360;-66
2023/01/26 11:49:23;;;;;;;62.75;19.23;;;1.30;99.90;;;;;;4992248;28;20100;-66
2023/01/26 11:52:19;;;;;;;47.72;17.70;;;1.30;99.90;;;;;;4983395;28;20033;-66
2023/01/26 11:55:13;;;;;;;51.45;17.55;;;1.30;99.90;;;;;;4981498;28;20027;-66
2023/01/26 11:57:55;;;;;;;50.88;17.75;;;1.20;99.90;;;;;;4982198;28;20041;-66
2023/01/26 12:01:00;;;;;;;59.65;19.77;;;1.10;99.90;;;;;;4980809;28;20073;-66
2023/01/26 12:03:50;;;;;;;58.40;19.45;;;1.20;99.90;;;;;;4978874;28;20055;-65
2023/01/26 12:06:18;;;;;;;62.55;19.83;;;1.10;99.90;;;;;;4981959;28;20042;-66
2023/01/26 12:09:17;;;;;;;53.10;18.52;;;1.20;99.90;;;;;;4978736;28;20043;-66
2023/01/26 12:11:54;;;;;;;47.47;17.00;;;1.20;99.90;;;;;;4981618;28;20069;-66
2023/01/26 12:14:24;;;;;;;49.30;17.42;;;1.30;99.90;;;;;;4966874;28;20157;-66
2023/01/26 12:17:03;;;;;;;55.95;16.85;;;1.30;99.90;;;;;;4982346;28;20089;-66
2023/01/26 12:20:03;;;;;;;59.67;17.33;;;1.40;99.90;;;;;;4983183;28;20031;-66
2023/01/26 12:22:35;;;;;;;64.55;20.17;;;1.40;99.90;;;;;;4987659;28;20026;-65
2023/01/26 12:25:07;;;;;;;61.25;17.15;;;1.40;99.90;;;;;;4988316;28;20112;-67
2023/01/26 12:27:43;;;;;;;47.72;17.10;;;1.60;99.90;;;;;;4986211;28;20042;-67
2023/01/26 12:30:32;;;;;;;48.17;18.33;;;1.60;99.90;;;;;;4981829;28;20034;-66
2023/01/26 12:32:58;;;;;;;49.53;17.08;;;1.70;99.90;;;;;;4983122;28;20050;-66
2023/01/26 12:35:36;;;;;;;50.58;17.40;;;1.60;99.90;;;;;;4987980;28;20472;-66
2023/01/26 12:38:17;;;;;;;52.70;18.45;;;1.40;99.90;;;;;;4986799;28;20038;-66
2023/01/26 12:41:23;;;;;;;55.72;17.90;;;1.40;99.90;;;;;;4978507;28;20073;-66
2023/01/26 12:44:09;;;;;;;55.13;19.55;;;1.20;99.90;;;;;;4983982;28;20562;-65
2023/01/26 12:46:41;;;;;;;58.42;19.95;;;1.20;99.90;;;;;;4986352;28;20022;-67
2023/01/26 12:49:23;;;;;;;48.65;17.20;;;1.20;99.90;;;;;;4987024;28;20136;-66
2023/01/26 12:51:57;;;;;;;55.75;16.67;;;1.30;99.90;;;;;;4981252;28;20507;-66
2023/01/26 12:54:48;;;;;;;65.15;20.70;;;1.30;99.90;;;;;;4981083;28;20038;-66
2023/01/26 12:57:21;;;;;;;61.35;19.25;;;1.30;99.90;;;;;;4980504;28;21931;-66
2023/01/26 12:59:47;;;;;;;65.28;20.02;;;1.20;99.90;;;;;;4980495;28;20034;-67
2023/01/26 13:02:23;;;;;;;59.70;20.20;;;1.20;99.90;;;;;;4977391;28;20034;-66
2023/01/26 13:04:49;;;;;;;52.72;17.58;;;1.10;99.90;;;;;;4989080;28;20034;-68
2023/01/26 13:07:26;;;;;;;61.15;21.83;;;1.10;99.90;;;;;;4983699;28;20038;-67
2023/01/26 13:10:14;;;;;;;67.65;21.77;;;1.00;99.90;;;;;;4984713;28;20587;-66
2023/01/26 13:12:52;;;;;;;60.58;19.00;;;1.10;99.90;;;;;;4978514;28;20029;-66
2023/01/26 13:15:27;;;;;;;61.97;20.90;;;1.10;99.90;;;;;;4969140;28;20436;-66
2023/01/26 13:17:57;;;;;;;56.80;17.98;;;1.10;99.90;;;;;;4981670;28;20392;-66
2023/01/26 13:20:48;;;;;;;55.60;18.30;;;1.10;99.90;;;;;;4978899;28;20034;-66
2023/01/26 13:23:38;;;;;;;52.17;19.50;;;1.10;99.90;;;;;;4984012;28;20030;-66
2023/01/26 13:26:17;;;;;;;53.78;17.83;;;1.00;99.90;;;;;;4981206;28;20049;-65
2023/01/26 13:28:44;;;;;;;51.28;17.15;;;0.90;99.90;;;;;;4984866;28;20511;-65
2023/01/26 13:31:11;;;;;;;56.65;17.80;;;1.00;99.90;;;;;;4985927;28;20157;-66
2023/01/26 13:33:37;;;;;;;46.15;16.65;;;1.10;99.90;;;;;;4988943;28;20026;-66
2023/01/26 13:36:12;;;;;;;50.40;15.95;;;1.10;99.90;;;;;;4986945;28;20066;-67